Time;durP1;ratioP1;P1;durP2;ratioP2;P2;SDS_P1;SDS_P2;PMS_P1;PMS_P2;Temp;Humidity;BMP_temperature;BMP_pressure;BME280_temperature;BME280_humidity;BME280_pressure;Samples;Min_cycle;Max_cycle;Signal;HPM_P1;HPM_P2
2023/04/29 00:01:12;;;;;;;7.10;3.20;;;;;;;18.31;29.40;100215.59;107036;1270;74420;-67
2023/04/29 00:03:39;;;;;;;4.70;3.20;;;;;;;18.19;29.60;100217.66;106998;1270;71348;-66
2023/04/29 00:06:07;;;;;;;6.00;2.40;;;;;;;18.22;29.75;100218.57;106908;1270;74964;-66
2023/04/29 00:08:34;;;;;;;8.50;3.10;;;;;;;18.45;29.47;100219.66;106869;1270;61159;-66
2023/04/29 00:11:00;;;;;;;5.50;2.70;;;;;;;18.45;29.70;100215.05;106883;1270;62573;-65
2023/04/29 00:13:27;;;;;;;5.30;2.80;;;;;;;18.42;29.86;100210.11;106878;1270;75634;-68
2023/04/29 00:15:54;;;;;;;6.50;3.10;;;;;;;18.52;29.76;100212.08;106896;1270;72764;-66
2023/04/29 00:18:21;;;;;;;5.30;3.00;;;;;;;18.24;29.93;100208.26;106796;1270;72599;-64
2023/04/29 00:20:48;;;;;;;7.30;3.60;;;;;;;18.45;29.69;100208.45;106910;1271;60059;-66
2023/04/29 00:23:15;;;;;;;4.20;2.50;;;;;;;18.24;29.90;100207.23;107006;1270;62031;-66
2023/04/29 00:25:42;;;;;;;3.70;2.80;;;;;;;18.54;29.53;100209.10;106972;1270;76135;-67
2023/04/29 00:28:09;;;;;;;6.40;3.00;;;;;;;18.39;29.62;100208.67;107027;1270;72236;-66
2023/04/29 00:30:36;;;;;;;8.10;2.60;;;;;;;18.16;30.04;100207.40;106913;1270;72516;-67
2023/04/29 00:33:04;;;;;;;5.90;2.90;;;;;;;18.19;29.87;100210.36;107127;1270;61559;-66
2023/04/29 00:35:30;;;;;;;6.00;3.10;;;;;;;18.17;29.93;100210.87;107022;1270;61462;-66
2023/04/29 00:37:57;;;;;;;5.90;2.90;;;;;;;17.99;30.01;100212.48;107016;1270;75722;-66
2023/04/29 00:40:24;;;;;;;6.50;3.10;;;;;;;18.12;29.90;100210.50;106967;1275;71466;-67
2023/04/29 00:42:51;;;;;;;4.70;3.00;;;;;;;18.21;29.74;100212.35;106978;1270;74636;-66
2023/04/29 00:45:17;;;;;;;4.60;3.00;;;;;;;18.56;29.30;100207.36;107039;1270;61896;-66
2023/04/29 00:47:44;;;;;;;9.90;2.90;;;;;;;18.63;29.22;100209.72;107114;1270;62388;-67
2023/04/29 00:50:12;;;;;;;6.00;3.20;;;;;;;18.86;28.85;100205.82;107073;1270;75010;-66
2023/04/29 00:52:39;;;;;;;7.40;3.60;;;;;;;18.56;29.16;100207.67;107107;1270;68561;-67
2023/04/29 00:55:07;;;;;;;6.10;2.80;;;;;;;18.36;29.36;100206.55;106985;1270;75091;-67
2023/04/29 00:57:34;;;;;;;6.00;3.20;;;;;;;19.04;28.56;100205.27;106895;1271;62080;-66
2023/04/29 01:00:02;;;;;;;6.30;2.90;;;;;;;18.78;28.65;100215.40;107044;1270;61297;-67
2023/04/29 01:02:29;;;;;;;5.60;3.00;;;;;;;18.73;29.04;100216.33;107148;1273;76610;-67
2023/04/29 01:04:56;;;;;;;6.80;2.80;;;;;;;19.09;28.51;100211.67;107083;1273;72095;-66
2023/04/29 01:07:35;;;;;;;4.70;2.80;;;;;;;19.06;28.56;100216.33;107073;1273;74843;-67
2023/04/29 01:10:10;;;;;;;5.90;3.20;;;;;;;19.10;28.42;100215.71;107081;1270;63162;-66
2023/04/29 01:12:53;;;;;;;6.00;2.80;;;;;;;18.90;28.40;100223.66;107026;1269;62550;-66
2023/04/29 01:15:22;;;;;;;9.80;3.00;;;;;;;19.05;28.26;100222.64;107062;1270;76292;-65
2023/04/29 01:18:00;;;;;;;4.80;2.80;;;;;;;18.77;28.50;100228.80;106987;1270;72480;-67
2023/04/29 01:20:27;;;;;;;6.20;3.10;;;;;;;18.67;28.60;100228.46;106943;1270;73765;-67
2023/04/29 01:22:54;;;;;;;7.00;2.80;;;;;;;18.93;28.24;100225.08;106830;1270;61945;-66
2023/04/29 01:25:22;;;;;;;6.60;3.10;;;;;;;18.96;28.08;100225.41;107036;1269;60792;-67
2023/04/29 01:28:46;;;;;;;7.50;3.30;;;;;;;19.11;27.95;100222.58;106859;1270;75850;-65
2023/04/29 01:31:26;;;;;;;8.00;3.50;;;;;;;19.04;28.04;100228.73;106978;1270;71137;-67
2023/04/29 01:34:11;;;;;;;10.50;3.30;;;;;;;18.86;28.14;100231.96;106944;1270;74253;-66
2023/04/29 01:37:06;;;;;;;5.40;3.10;;;;;;;18.92;28.11;100232.28;106928;1271;62002;-66
2023/04/29 01:39:49;;;;;;;7.90;3.40;;;;;;;18.74;28.15;100231.19;106953;1271;60591;-66
2023/04/29 01:42:39;;;;;;;7.50;3.50;;;;;;;18.71;28.42;100233.33;107025;1269;74014;-68
2023/04/29 01:45:10;;;;;;;6.60;3.30;;;;;;;18.66;28.25;100235.08;107008;1270;71406;-66
2023/04/29 01:47:37;;;;;;;5.20;3.30;;;;;;;18.98;27.96;100233.44;107018;1270;73230;-66
2023/04/29 01:50:05;;;;;;;7.80;3.40;;;;;;;19.13;27.66;100236.52;106824;1270;63262;-64
2023/04/29 01:52:32;;;;;;;8.10;2.80;;;;;;;18.26;28.43;100246.89;106992;1270;60381;-66
2023/04/29 01:54:59;;;;;;;8.00;3.70;;;;;;;18.01;28.81;100249.05;106911;1270;74789;-66
2023/04/29 01:57:34;;;;;;;7.80;3.40;;;;;;;17.87;28.89;100256.76;106940;1269;71028;-66
2023/04/29 02:00:12;;;;;;;5.80;3.10;;;;;;;17.82;28.97;100253.89;106937;1270;73178;-66
2023/04/29 02:02:39;;;;;;;5.70;2.70;;;;;;;17.84;29.05;100253.22;106932;1270;63004;-67
2023/04/29 02:05:14;;;;;;;5.40;3.20;;;;;;;17.96;28.92;100247.63;106979;1270;62037;-66
2023/04/29 02:07:44;;;;;;;9.10;3.10;;;;;;;17.85;29.18;100250.48;106967;1275;75052;-66
2023/04/29 02:10:11;;;;;;;7.50;3.00;;;;;;;17.29;29.66;100260.77;106778;1270;70409;-67
2023/04/29 02:12:39;;;;;;;12.30;3.50;;;;;;;17.39;29.54;100259.61;106898;1271;73095;-66
2023/04/29 02:15:08;;;;;;;6.50;3.40;;;;;;;17.20;29.79;100260.98;107003;1271;63064;-66
2023/04/29 02:17:34;;;;;;;8.70;3.80;;;;;;;17.16;29.95;100261.42;106989;1270;63134;-67
2023/04/29 02:20:01;;;;;;;8.80;3.40;;;;;;;17.19;29.98;100258.20;106974;1270;75791;-66
2023/04/29 02:22:28;;;;;;;10.20;3.40;;;;;;;17.35;29.69;100257.17;106959;1270;72493;-66
2023/04/29 02:24:58;;;;;;;7.20;3.20;;;;;;;17.22;29.78;100258.74;106935;1271;75064;-66
2023/04/29 02:27:25;;;;;;;8.70;3.00;;;;;;;17.27;29.74;100262.31;106984;1271;61341;-66
2023/04/29 02:29:53;;;;;;;9.00;3.70;;;;;;;17.17;29.77;100266.30;107035;1270;60598;-66
2023/04/29 02:32:20;;;;;;;8.50;3.70;;;;;;;16.94;30.02;100269.17;106982;1270;73897;-67
2023/04/29 02:34:48;;;;;;;5.80;3.40;;;;;;;16.78;30.18;100270.46;107022;1270;72686;-67
2023/04/29 02:37:17;;;;;;;8.90;3.40;;;;;;;16.79;30.17;100271.48;106982;1275;75075;-64
2023/04/29 02:39:45;;;;;;;8.10;3.40;;;;;;;16.83;30.15;100272.64;106957;1270;61352;-65
2023/04/29 02:42:12;;;;;;;7.50;3.40;;;;;;;17.13;29.76;100272.58;106823;1271;62644;-65
2023/04/29 02:44:40;;;;;;;8.80;3.30;;;;;;;17.33;29.35;100272.74;106957;1273;76023;-65
2023/04/29 02:47:07;;;;;;;10.10;3.60;;;;;;;17.16;29.67;100277.73;106977;1270;70124;-66
2023/04/29 02:49:34;;;;;;;9.20;3.90;;;;;;;17.42;29.35;100280.02;106952;1270;74767;-64
2023/04/29 02:52:01;;;;;;;6.60;3.60;;;;;;;18.08;28.61;100276.45;106926;1270;60451;-64
2023/04/29 02:54:28;;;;;;;8.50;3.50;;;;;;;18.79;27.72;100281.20;106964;1270;61501;-66
2023/04/29 02:56:55;;;;;;;7.00;3.40;;;;;;;19.11;27.16;100285.54;107093;1270;74535;-67
2023/04/29 02:59:22;;;;;;;10.30;3.60;;;;;;;19.12;27.19;100288.35;106994;1270;72603;-68
2023/04/29 03:01:49;;;;;;;5.60;3.10;;;;;;;19.38;26.90;100291.79;107023;1270;73042;-66
2023/04/29 03:04:15;;;;;;;5.70;3.00;;;;;;;19.28;26.96;100295.23;107068;1274;60413;-65
2023/04/29 03:06:43;;;;;;;6.60;3.30;;;;;;;19.04;27.49;100299.04;107064;1270;60484;-64
2023/04/29 03:09:11;;;;;;;4.70;2.80;;;;;;;18.96;27.41;100299.06;107024;1269;76131;-65
2023/04/29 03:11:38;;;;;;;6.40;3.20;;;;;;;19.10;27.40;100303.96;107043;1270;71051;-65
2023/04/29 03:14:05;;;;;;;8.40;3.20;;;;;;;19.28;27.20;100304.30;106929;1270;73150;-66
2023/04/29 03:16:32;;;;;;;7.60;3.20;;;;;;;19.79;26.76;100304.61;106974;1270;62266;-68
2023/04/29 03:18:59;;;;;;;8.10;3.60;;;;;;;20.39;26.42;100304.08;106993;1269;62483;-67
2023/04/29 03:21:26;;;;;;;5.50;2.80;;;;;;;20.30;26.76;100305.80;107032;1270;75737;-69
2023/04/29 03:23:53;;;;;;;5.20;2.60;;;;;;;20.79;26.35;100311.81;107040;1270;69826;-67
2023/04/29 03:26:25;;;;;;;5.30;3.20;;;;;;;21.19;25.89;100315.77;106874;1270;74653;-67
2023/04/29 03:28:52;;;;;;;6.90;2.60;;;;;;;21.20;25.78;100315.21;106996;1270;61751;-69
2023/04/29 03:31:21;;;;;;;4.40;2.70;;;;;;;21.81;25.18;100317.89;107075;1269;60269;-67
2023/04/29 03:33:49;;;;;;;4.20;2.60;;;;;;;22.08;24.62;100322.64;106907;1270;76274;-66
2023/04/29 03:36:16;;;;;;;6.40;2.80;;;;;;;21.80;24.76;100327.92;107076;1270;70842;-67
2023/04/29 03:38:53;;;;;;;9.00;3.00;;;;;;;22.12;24.52;100327.33;107068;1270;73001;-66
2023/04/29 03:41:22;;;;;;;5.90;2.80;;;;;;;22.53;24.34;100323.21;106950;1271;60347;-65
2023/04/29 03:43:50;;;;;;;6.90;2.80;;;;;;;23.10;23.60;100317.56;106953;1270;61278;-66
2023/04/29 03:46:17;;;;;;;4.40;2.40;;;;;;;23.22;23.75;100319.55;107012;1270;76101;-66
2023/04/29 03:48:44;;;;;;;5.80;2.90;;;;;;;23.27;23.35;100318.42;107033;1270;70636;-67
2023/04/29 03:51:12;;;;;;;5.00;2.30;;;;;;;23.73;22.96;100321.28;106924;1270;73380;-67
2023/04/29 03:53:39;;;;;;;3.30;2.20;;;;;;;24.39;22.30;100319.52;106824;1270;62408;-67
2023/04/29 03:56:07;;;;;;;8.30;2.30;;;;;;;24.32;21.41;100321.96;107003;1270;62471;-65
2023/04/29 03:58:33;;;;;;;5.30;2.90;;;;;;;24.28;21.86;100329.13;106940;1270;75055;-67
2023/04/29 04:01:00;;;;;;;5.90;2.10;;;;;;;24.86;21.23;100327.77;106961;1270;70129;-67
2023/04/29 04:03:32;;;;;;;4.50;2.20;;;;;;;25.21;20.99;100328.04;106937;1271;71847;-64
2023/04/29 04:05:59;;;;;;;4.70;2.20;;;;;;;25.64;21.00;100327.34;106827;1270;62637;-65
2023/04/29 04:08:26;;;;;;;5.70;2.00;;;;;;;26.07;20.17;100328.48;107001;1270;62247;-66
2023/04/29 04:11:01;;;;;;;4.70;2.40;;;;;;;26.53;19.97;100326.08;107045;1270;75988;-67
2023/04/29 04:13:35;;;;;;;4.20;2.10;;;;;;;26.51;19.31;100331.30;107032;1270;72610;-67
2023/04/29 04:16:03;;;;;;;6.50;2.30;;;;;;;26.65;19.19;100334.43;107052;1270;74841;-67
2023/04/29 04:18:30;;;;;;;4.70;2.10;;;;;;;27.21;18.79;100335.60;107031;1272;62487;-67
2023/04/29 04:21:01;;;;;;;6.20;2.30;;;;;;;27.22;18.36;100335.39;106980;1269;62293;-66
2023/04/29 04:23:28;;;;;;;5.50;2.10;;;;;;;27.59;17.80;100341.14;106925;1270;76236;-67
2023/04/29 04:25:57;;;;;;;4.70;2.00;;;;;;;27.86;17.89;100345.59;107031;1270;72424;-66
2023/04/29 04:28:50;;;;;;;3.80;2.20;;;;;;;28.06;17.78;100339.98;107022;1268;75129;-70
2023/04/29 04:31:33;;;;;;;2.40;1.80;;;;;;;28.62;17.16;100342.05;106963;1270;62216;-66
2023/04/29 04:34:01;;;;;;;2.60;1.80;;;;;;;28.73;16.99;100341.95;106965;1270;60465;-66
2023/04/29 04:36:28;;;;;;;3.20;1.70;;;;;;;28.94;16.59;100340.29;106897;1270;72941;-67
2023/04/29 04:38:55;;;;;;;3.60;1.50;;;;;;;29.06;16.68;100341.29;106944;1270;72450;-67
2023/04/29 04:41:23;;;;;;;3.60;1.60;;;;;;;29.36;16.53;100342.20;107026;1270;74768;-67
2023/04/29 04:43:51;;;;;;;8.80;1.80;;;;;;;29.79;15.73;100346.30;107006;1271;60729;-67
2023/04/29 04:46:23;;;;;;;3.50;2.10;;;;;;;29.96;15.29;100344.77;106978;1269;62360;-67
2023/04/29 04:48:57;;;;;;;5.80;1.80;;;;;;;29.93;15.38;100346.89;106976;1270;76037;-67
2023/04/29 04:51:27;;;;;;;4.30;1.70;;;;;;;29.88;15.29;100344.95;106969;1276;72356;-67
2023/04/29 04:53:54;;;;;;;5.10;2.10;;;;;;;29.98;15.77;100347.54;106898;1271;72152;-68
2023/04/29 04:56:23;;;;;;;5.60;2.00;;;;;;;30.29;15.40;100345.20;106846;1271;60590;-70
2023/04/29 04:58:49;;;;;;;4.40;1.40;;;;;;;30.54;15.52;100345.35;106944;1269;61539;-68
2023/04/29 05:01:16;;;;;;;2.90;1.50;;;;;;;31.19;14.87;100341.81;107057;1270;75887;-69
2023/04/29 05:03:43;;;;;;;2.80;1.40;;;;;;;31.40;14.49;100337.83;106966;1270;69268;-68
2023/04/29 05:06:11;;;;;;;3.10;1.60;;;;;;;31.71;14.76;100340.23;106925;1270;74556;-67
2023/04/29 05:08:39;;;;;;;6.20;1.80;;;;;;;31.92;14.46;100342.56;106943;1270;62608;-68
2023/04/29 05:11:15;;;;;;;2.70;1.50;;;;;;;32.17;13.94;100341.77;107054;1271;61040;-68
2023/04/29 05:13:42;;;;;;;5.00;1.60;;;;;;;32.31;13.82;100337.66;106969;1270;75674;-68
2023/04/29 05:16:09;;;;;;;3.00;1.50;;;;;;;32.32;13.50;100340.98;106925;1270;71644;-68
2023/04/29 05:18:39;;;;;;;3.50;1.50;;;;;;;31.95;13.84;100344.30;106990;1276;72978;-69
2023/04/29 05:21:05;;;;;;;6.40;1.80;;;;;;;32.05;13.95;100342.94;106902;1273;62485;-68
2023/04/29 05:23:32;;;;;;;2.80;1.60;;;;;;;32.24;13.64;100341.73;106933;1268;61733;-67
2023/04/29 05:26:00;;;;;;;4.40;1.60;;;;;;;32.48;13.87;100342.40;107033;1274;72136;-68
2023/04/29 05:28:27;;;;;;;3.20;1.50;;;;;;;32.83;13.23;100340.11;106990;1270;72719;-68
2023/04/29 05:30:54;;;;;;;2.10;1.30;;;;;;;32.98;13.16;100337.73;106982;1270;74711;-68
2023/04/29 05:33:21;;;;;;;2.90;1.30;;;;;;;33.05;12.86;100337.73;107007;1270;62366;-68
2023/04/29 05:35:48;;;;;;;2.80;1.40;;;;;;;33.06;12.60;100340.80;106991;1268;61715;-68
2023/04/29 05:38:15;;;;;;;4.70;1.40;;;;;;;33.15;12.85;100344.58;107025;1269;75740;-68
2023/04/29 05:40:57;;;;;;;3.00;1.40;;;;;;;33.07;12.54;100341.23;106982;1270;70905;-68
2023/04/29 05:43:29;;;;;;;3.00;1.20;;;;;;;33.07;12.49;100347.07;106954;1269;72823;-67
2023/04/29 05:45:57;;;;;;;5.60;1.70;;;;;;;33.16;12.11;100343.15;106934;1270;62195;-69
2023/04/29 05:48:24;;;;;;;4.10;1.50;;;;;;;33.15;12.16;100345.83;107017;1269;62653;-69
2023/04/29 05:50:51;;;;;;;3.60;1.40;;;;;;;33.22;12.22;100343.52;106917;1270;73523;-67
2023/04/29 05:53:17;;;;;;;1.70;1.20;;;;;;;33.24;11.96;100344.42;106942;1276;71414;-67
2023/04/29 05:55:45;;;;;;;3.10;1.00;;;;;;;33.13;11.87;100342.83;107010;1272;74846;-68
2023/04/29 05:58:13;;;;;;;4.40;1.30;;;;;;;33.01;11.96;100345.84;106967;1271;60462;-67
2023/04/29 06:00:42;;;;;;;7.90;1.30;;;;;;;33.08;12.08;100348.60;106918;1268;61538;-68
2023/04/29 06:03:12;;;;;;;2.40;1.00;;;;;;;33.16;11.82;100349.57;106985;1269;75324;-70
2023/04/29 06:05:39;;;;;;;5.10;1.50;;;;;;;33.58;11.43;100354.65;107006;1270;72249;-68
2023/04/29 06:08:19;;;;;;;4.30;1.60;;;;;;;33.34;11.60;100356.53;106961;1270;75014;-68
2023/04/29 06:10:51;;;;;;;4.30;1.60;;;;;;;32.85;11.59;100358.98;106845;1271;62824;-67
2023/04/29 06:13:18;;;;;;;4.80;1.60;;;;;;;32.29;11.83;100356.43;107108;1269;60775;-68
2023/04/29 06:15:45;;;;;;;4.40;1.00;;;;;;;32.01;12.15;100354.45;106944;1269;73127;-68
2023/04/29 06:18:13;;;;;;;6.10;2.10;;;;;;;32.09;12.15;100356.40;106969;1269;71748;-68
2023/04/29 06:20:41;;;;;;;3.50;1.60;;;;;;;32.23;12.12;100359.59;106997;1270;72928;-67
2023/04/29 06:23:08;;;;;;;3.00;1.30;;;;;;;32.20;12.33;100359.72;107019;1270;60470;-68
2023/04/29 06:25:35;;;;;;;4.10;1.20;;;;;;;31.98;12.35;100359.58;107056;1270;62854;-69
2023/04/29 06:28:07;;;;;;;3.40;1.30;;;;;;;31.68;12.35;100361.81;107002;1270;76296;-68
2023/04/29 06:30:38;;;;;;;5.00;1.80;;;;;;;31.80;12.61;100359.77;107070;1271;72918;-67
2023/04/29 06:33:04;;;;;;;5.60;1.20;;;;;;;32.39;12.67;100357.13;107014;1271;74774;-68
2023/04/29 06:35:31;;;;;;;5.70;1.80;;;;;;;32.69;12.00;100355.92;107065;1268;62497;-68
2023/04/29 06:38:21;;;;;;;5.00;1.80;;;;;;;32.76;11.90;100363.16;107006;1270;60967;-69
2023/04/29 06:41:05;;;;;;;6.40;1.60;;;;;;;32.37;11.74;100365.94;106953;1270;76161;-69
2023/04/29 06:43:50;;;;;;;6.50;1.70;;;;;;;31.80;11.62;100369.56;106969;1273;72753;-68
2023/04/29 06:46:56;;;;;;;3.70;1.60;;;;;;;31.67;11.81;100369.25;106306;1277;73675;-68
2023/04/29 06:49:46;;;;;;;6.40;1.90;;;;;;;31.73;12.06;100367.41;106370;1276;62462;-68
2023/04/29 06:52:13;;;;;;;5.30;1.50;;;;;;;31.79;12.11;100366.30;106717;1277;60961;-68
2023/04/29 06:54:41;;;;;;;5.40;1.40;;;;;;;32.01;11.78;100365.16;107005;1270;75845;-68
2023/04/29 06:57:08;;;;;;;9.80;1.50;;;;;;;31.77;11.63;100362.83;107096;1270;72459;-68
2023/04/29 06:59:36;;;;;;;10.90;1.30;;;;;;;32.06;11.50;100357.42;106971;1271;73073;-69
2023/04/29 07:02:03;;;;;;;4.80;1.10;;;;;;;32.46;11.87;100363.91;107077;1268;60468;-67
2023/04/29 07:04:30;;;;;;;4.30;1.40;;;;;;;32.52;11.35;100365.05;107148;1270;61273;-67
2023/04/29 07:06:58;;;;;;;8.10;1.40;;;;;;;32.02;10.88;100360.20;106852;1270;256896;-68
2023/04/29 07:10:31;;;;;;;5.20;1.10;;;;;;;29.06;12.57;100373.43;105100;1289;599566;-70
2023/04/29 07:12:59;;;;;;;1.60;0.90;;;;;;;30.49;11.93;100372.61;107324;1264;59110;-68
2023/04/29 07:15:26;;;;;;;2.20;1.10;;;;;;;30.83;11.58;100365.17;107281;1266;60981;-70
2023/04/29 07:17:53;;;;;;;3.10;1.20;;;;;;;30.86;11.86;100370.42;107283;1266;73121;-70
2023/04/29 07:20:20;;;;;;;4.30;1.30;;;;;;;31.33;11.90;100368.11;107222;1265;69300;-69
2023/04/29 07:22:49;;;;;;;5.00;1.40;;;;;;;31.70;11.77;100369.16;107221;1266;74687;-70
2023/04/29 07:25:16;;;;;;;2.80;1.40;;;;;;;32.13;11.65;100361.19;107264;1263;176159;-68
2023/04/29 07:27:43;;;;;;;6.30;1.70;;;;;;;32.06;11.31;100369.77;107394;1263;61689;-69
2023/04/29 07:30:11;;;;;;;3.80;1.20;;;;;;;31.97;11.29;100368.73;107495;1263;72217;-68
2023/04/29 07:32:38;;;;;;;4.50;1.20;;;;;;;32.60;11.44;100363.77;107437;1263;70771;-70
2023/04/29 07:35:05;;;;;;;4.70;1.30;;;;;;;34.13;10.50;100363.52;107448;1263;74906;-69
2023/04/29 07:37:31;;;;;;;5.10;1.10;;;;;;;34.05;10.16;100369.75;107368;1263;61569;-68
2023/04/29 07:39:58;;;;;;;6.80;1.20;;;;;;;33.84;10.56;100371.66;107490;1263;60144;-68
2023/04/29 07:42:26;;;;;;;4.10;1.30;;;;;;;34.01;10.69;100368.00;107390;1263;74357;-68
2023/04/29 07:44:53;;;;;;;3.80;1.40;;;;;;;34.47;10.65;100367.95;107331;1263;72571;-68
2023/04/29 07:47:20;;;;;;;2.80;1.10;;;;;;;34.55;10.41;100355.06;107366;1263;72585;-68
2023/04/29 07:49:47;;;;;;;4.10;1.10;;;;;;;34.03;10.79;100355.45;107347;1263;62533;-68
2023/04/29 07:52:14;;;;;;;3.60;1.40;;;;;;;33.30;10.71;100354.28;107343;1263;60081;-68
2023/04/29 07:54:42;;;;;;;3.90;1.10;;;;;;;33.23;10.83;100353.61;107439;1263;73378;-67
2023/04/29 07:57:09;;;;;;;4.30;1.30;;;;;;;33.34;11.05;100349.59;107390;1263;69104;-69
2023/04/29 07:59:36;;;;;;;3.60;1.30;;;;;;;32.97;10.89;100352.76;107423;1265;73284;-68
2023/04/29 08:02:03;;;;;;;2.80;1.60;;;;;;;32.81;10.99;100347.92;107362;1263;60828;-70
2023/04/29 08:04:30;;;;;;;5.60;1.20;;;;;;;32.76;11.22;100345.28;107328;1263;62273;-69
2023/04/29 08:07:03;;;;;;;;;;;;;;;33.17;11.18;100348.29;107333;1263;75102;-69
2023/04/29 08:09:30;;;;;;;4.00;1.10;;;;;;;33.31;11.00;100343.66;107360;1268;72233;-68
2023/04/29 08:11:56;;;;;;;2.80;1.10;;;;;;;33.41;10.74;100343.82;107827;1256;72606;-68
2023/04/29 08:14:23;;;;;;;6.30;1.30;;;;;;;34.01;10.96;100340.94;107745;1255;62200;-70
2023/04/29 08:16:50;;;;;;;5.40;1.30;;;;;;;33.42;10.86;100336.96;107764;1256;62679;-68
2023/04/29 08:19:17;;;;;;;6.90;1.30;;;;;;;32.82;11.19;100333.20;108296;1250;73973;-69
2023/04/29 08:21:44;;;;;;;6.40;1.40;;;;;;;32.95;11.48;100337.22;108345;1251;70604;-69
2023/04/29 08:24:10;;;;;;;4.00;1.30;;;;;;;32.16;11.51;100339.39;108246;1253;74739;-69
2023/04/29 08:26:39;;;;;;;10.50;2.90;;;;;;;31.81;11.71;100340.33;108260;1251;60375;-69
2023/04/29 08:29:06;;;;;;;3.30;1.70;;;;;;;32.13;11.52;100331.64;108292;1251;59761;-69
2023/04/29 08:31:33;;;;;;;5.20;1.10;;;;;;;32.38;11.79;100335.28;108267;1251;73058;-69
2023/04/29 08:34:00;;;;;;;5.20;1.30;;;;;;;33.37;11.69;100333.34;108230;1251;69572;-68
2023/04/29 08:36:27;;;;;;;5.30;1.40;;;;;;;34.06;11.12;100337.24;108292;1251;70832;-69
2023/04/29 08:38:54;;;;;;;4.20;1.20;;;;;;;33.77;10.82;100328.88;108310;1250;61082;-71
2023/04/29 08:41:22;;;;;;;4.20;1.40;;;;;;;34.46;10.85;100335.13;108351;1251;59388;-70
2023/04/29 08:43:48;;;;;;;6.70;2.20;;;;;;;34.66;10.80;100333.93;108294;1256;66490;-70
2023/04/29 08:46:16;;;;;;;6.10;1.50;;;;;;;34.99;10.69;100333.79;108315;1251;62692;-70
2023/04/29 08:48:43;;;;;;;6.70;2.30;;;;;;;35.24;10.70;100335.58;108133;1253;66201;-70
2023/04/29 08:51:12;;;;;;;5.00;1.50;;;;;;;35.02;10.21;100331.89;108339;1256;59835;-70
2023/04/29 08:53:39;;;;;;;5.40;1.60;;;;;;;34.89;10.53;100337.95;108380;1251;59381;-70
2023/04/29 08:56:13;;;;;;;5.20;1.20;;;;;;;34.75;10.33;100340.85;108287;1251;75331;-68
2023/04/29 08:58:40;;;;;;;6.10;1.10;;;;;;;34.71;10.29;100338.36;108285;1251;64064;-68
2023/04/29 09:01:10;;;;;;;1.40;1.00;;;;;;;34.24;10.68;100336.31;108175;1251;74950;-69
2023/04/29 09:03:51;;;;;;;1.90;1.20;;;;;;;33.05;10.97;100340.80;108017;1251;62376;-69
2023/04/29 09:06:18;;;;;;;5.70;2.20;;;;;;;33.51;11.16;100342.11;108215;1251;62139;-69
2023/04/29 09:08:45;;;;;;;5.10;1.50;;;;;;;32.85;11.49;100339.12;108184;1251;74136;-68
2023/04/29 09:11:12;;;;;;;2.60;1.30;;;;;;;32.80;11.72;100335.25;108084;1251;71273;-69
2023/04/29 09:13:39;;;;;;;3.70;1.30;;;;;;;32.37;11.81;100333.28;108349;1251;74060;-68
2023/04/29 09:16:10;;;;;;;2.50;0.90;;;;;;;32.78;11.53;100335.77;108202;1252;61437;-69
2023/04/29 09:18:45;;;;;;;3.30;1.30;;;;;;;32.78;11.87;100330.80;108248;1251;62486;-69
2023/04/29 09:21:16;;;;;;;5.70;1.50;;;;;;;32.55;11.90;100331.92;108245;1253;75255;-70
2023/04/29 09:23:47;;;;;;;3.60;1.40;;;;;;;32.92;11.82;100328.88;108161;1251;72380;-70
2023/04/29 09:26:14;;;;;;;3.60;1.40;;;;;;;32.40;11.99;100327.98;108179;1251;74673;-70
2023/04/29 09:28:43;;;;;;;4.40;1.30;;;;;;;32.19;12.01;100320.13;108154;1257;61243;-68
2023/04/29 09:31:11;;;;;;;4.50;1.30;;;;;;;32.33;12.20;100317.43;108243;1251;62310;-68
2023/04/29 09:33:54;;;;;;;3.30;1.10;;;;;;;32.46;12.05;100331.02;108241;1251;75431;-68
2023/04/29 09:36:35;;;;;;;4.70;1.40;;;;;;;33.16;11.72;100329.88;108246;1251;72644;-69
2023/04/29 09:39:04;;;;;;;;;;;;;;;33.03;11.53;100318.66;108234;1251;74754;-67
2023/04/29 09:41:31;;;;;;;4.30;1.40;;;;;;;33.54;11.73;100317.41;108241;1253;61180;-69
2023/04/29 09:44:05;;;;;;;3.00;1.40;;;;;;;34.04;11.11;100319.80;108261;1251;61430;-67
2023/04/29 09:46:33;;;;;;;5.70;1.60;;;;;;;34.52;11.25;100324.24;108316;1251;66016;-67
2023/04/29 09:48:59;;;;;;;3.80;1.20;;;;;;;34.41;11.18;100324.10;108296;1255;62420;-70
2023/04/29 09:51:26;;;;;;;3.20;1.20;;;;;;;34.73;11.20;100319.05;108229;1251;64944;-69
2023/04/29 09:53:53;;;;;;;4.50;1.50;;;;;;;34.79;10.78;100313.91;108170;1251;59674;-68
2023/04/29 09:56:21;;;;;;;4.50;1.60;;;;;;;34.47;10.80;100314.95;108177;1253;62246;-68
2023/04/29 09:58:48;;;;;;;5.30;1.40;;;;;;;33.92;11.30;100309.75;108118;1257;75014;-69
2023/04/29 10:01:18;;;;;;;4.80;1.60;;;;;;;34.33;11.62;100308.75;108161;1253;72457;-70
2023/04/29 10:03:45;;;;;;;4.10;1.40;;;;;;;34.18;11.15;100307.66;108091;1253;65565;-69
2023/04/29 10:06:13;;;;;;;3.10;1.60;;;;;;;34.13;11.47;100306.91;108102;1254;61824;-69
2023/04/29 10:08:40;;;;;;;4.40;1.20;;;;;;;35.07;11.29;100299.33;108045;1252;61676;-69
2023/04/29 10:11:07;;;;;;;3.50;1.60;;;;;;;34.95;11.20;100295.86;108187;1253;66484;-69
2023/04/29 10:13:37;;;;;;;6.00;1.80;;;;;;;34.42;10.94;100302.33;107951;1253;63429;-69
2023/04/29 10:16:21;;;;;;;4.90;1.70;;;;;;;34.00;10.98;100300.10;108096;1253;74404;-69
2023/04/29 10:18:51;;;;;;;4.10;1.40;;;;;;;33.98;11.26;100308.92;108107;1253;61285;-70
2023/04/29 10:21:24;;;;;;;2.80;1.10;;;;;;;34.48;11.38;100304.66;108159;1253;61817;-68
2023/04/29 10:23:50;;;;;;;7.00;1.40;;;;;;;35.26;10.74;100300.29;108011;1253;65643;-70
2023/04/29 10:26:17;;;;;;;3.00;1.50;;;;;;;35.32;10.91;100294.71;108211;1252;63517;-68
2023/04/29 10:28:44;;;;;;;3.10;1.10;;;;;;;35.30;11.10;100289.35;108248;1253;66044;-68
2023/04/29 10:31:12;;;;;;;5.80;1.40;;;;;;;35.83;10.98;100289.92;108175;1253;59489;-67
2023/04/29 10:33:39;;;;;;;5.10;1.40;;;;;;;36.35;10.64;100290.02;108216;1253;59115;-70
2023/04/29 10:36:06;;;;;;;3.90;1.30;;;;;;;36.22;10.38;100283.61;108064;1253;66310;-69
2023/04/29 10:38:40;;;;;;;4.10;1.70;;;;;;;36.52;10.61;100277.48;108124;1252;63326;-69
2023/04/29 10:41:09;;;;;;;5.60;1.40;;;;;;;36.32;10.53;100280.38;108180;1253;64882;-69
2023/04/29 10:43:38;;;;;;;8.00;1.90;;;;;;;36.10;10.41;100275.51;108160;1257;59471;-70
2023/04/29 10:46:21;;;;;;;5.70;2.60;;;;;;;36.00;10.34;100269.18;108111;1253;59542;-68
2023/04/29 10:48:50;;;;;;;11.70;1.60;;;;;;;35.40;10.46;100271.25;108146;1253;66515;-71
2023/04/29 10:51:42;;;;;;;9.70;3.10;;;;;;;35.44;10.88;100275.50;108105;1253;63330;-69
2023/04/29 10:54:15;;;;;;;6.70;1.70;;;;;;;35.21;10.77;100278.58;108105;1254;74961;-68
2023/04/29 10:56:50;;;;;;;7.50;1.80;;;;;;;34.73;10.84;100270.04;108297;1253;59628;-68
2023/04/29 10:59:21;;;;;;;6.80;1.70;;;;;;;35.06;10.98;100270.96;108304;1253;59942;-69
2023/04/29 11:01:49;;;;;;;4.60;1.20;;;;;;;34.77;11.08;100267.17;108242;1256;66546;-69
2023/04/29 11:04:17;;;;;;;7.70;1.50;;;;;;;34.35;11.55;100262.06;108307;1251;71985;-69
2023/04/29 11:06:46;;;;;;;7.10;1.90;;;;;;;34.42;11.03;100272.76;108253;1251;73944;-68
2023/04/29 11:09:39;;;;;;;3.70;1.70;;;;;;;34.40;11.30;100263.62;108259;1253;62431;-69
2023/04/29 11:12:10;;;;;;;2.50;1.50;;;;;;;34.64;11.19;100255.55;108277;1251;59408;-68
2023/04/29 11:14:42;;;;;;;3.20;1.30;;;;;;;34.74;10.76;100253.23;108255;1251;66791;-69
2023/04/29 11:17:14;;;;;;;3.20;1.50;;;;;;;34.20;10.91;100254.85;108178;1251;72660;-69
2023/04/29 11:19:49;;;;;;;4.30;1.60;;;;;;;33.97;11.12;100249.95;108214;1251;74897;-69
2023/04/29 11:22:22;;;;;;;6.40;2.00;;;;;;;33.40;11.21;100249.54;108185;1256;62584;-69
2023/04/29 11:24:49;;;;;;;4.70;1.80;;;;;;;33.24;11.24;100254.31;108319;1251;62399;-67
2023/04/29 11:27:17;;;;;;;4.20;1.40;;;;;;;32.96;11.21;100260.28;108253;1254;75400;-68
2023/04/29 11:29:46;;;;;;;3.40;1.30;;;;;;;33.02;11.21;100259.14;108261;1251;71666;-69